Itaquaquecetuba, Brazil
Current Conditions -  °F | °C
As of 6:00 AM on Saturday 25 Oct 2014 (Local Time) from SBGR Reporting Station
Clear Clear  
Wind Chill: 64°   Ceiling: Unl
Heat Index: 64°   Visibility: 4mi
Dew Point: 63°   Wind: 5mph
Humidity: 94%   Direction: 70°ENE
Pressure: 29.97"   Gusts: NA
Location:  23.49°S, 46.35°W
Report Text: SBGR 250800Z 07004KT 7000 NSC 18/17 Q1015
Loading
Personal Weather Stations






























Interactive Weather Map
Tropical Storm Tracking
New forecast layout! Learn more

10-Day Weather Forecast

Advertisements
Track Severe Weather on mobile